Tuuli Mistä: 06-06-2020 20:00 Mihin asti: 07-06-2020 03:00 Varoitus: Tuuli Taso: Keltainen info button
suomi:
Tuulivaroitus maa-alueille: Etelätuuli on voimakasta illalla ja yöllä, tuulen nopeus puuskissa 15 m/s.

Metsäpalo Mistä: 06-06-2020 08:05 Mihin asti: 07-06-2020 03:00 Varoitus: Metsäpalo Taso: Keltainen info button
suomi:
Metsäpalovaroitus on voimassa.

Lähimmät METAR asemat

 

EFPO - Pori (mil/Civ), Finland
Distance from station: PLU 42km
Päivitetty: 06/06/2020 11:20
Heikkoa sadetta, Vaihtelevaa
Heikkoa sadetta, Vaihtelevaa
 Wind from IKA
Tuuli: IKA 28 km/h
Lämpötila: 13°C
Kastepiste: 13°C
Kosteus: 100%
Ilmanpaine: 993 hPa
Yhteenveto: Heikkoa sadetta
Clouds: Vaihtelevaa
Visibility: 4 km
Cloud details: Vaihtelevaa 274 m
2020/06/06 08:20 EFPO 060820Z AUTO 12015KT 3800 -RA OVC009 13/13 Q0993
EFTU - Turku/Abo, Finland
Distance from station: E 68km
Päivitetty: 06/06/2020 11:20
Vaihtelevaa
Vaihtelevaa
 Wind from E
Tuuli: E 17 km/h
Lämpötila: 12°C
Kastepiste: 11°C
Kosteus: 94%
Ilmanpaine: 994 hPa
Clouds: Vaihtelevaa
Visibility: 10 km
Cloud details: Vaihtelevaa 152 m
2020/06/06 08:20 EFTU 060820Z AUTO 18009KT 150V210 9999 OVC005 12/11 Q0994
 
EFTP - Tampere/Pirkkala, Finland
Distance from station: IKO 84km
Päivitetty: 06/06/2020 11:20
Voimakasta sadetta, Showers, Thunderstorm
Voimakasta sadetta, Showers, Thunderstorm
 Wind from IKA
Tuuli: IKA 20 km/h, Puuskatuuli: 39 km/h
Lämpötila: 13°C
Kastepiste: 12°C
Kosteus: 94%
Ilmanpaine: 995 hPa
Yhteenveto: Voimakasta sadetta, Showers
Clouds: Thunderstorm
Visibility: 4 km
Cloud details: Vaihtelevaa 213 m
2020/06/06 08:20 EFTP 060820Z AUTO 12011G21KT 090V150 4200 +SHRA OVC007 //////CB 13/12 Q0995